sensor_id;sensor_type;location;lat;lon;timestamp;pressure;altitude;pressure_sealevel;temperature;humidity
57248;BME280;55809;46.618;10.764;2022-11-04T00:01:07;92137.41;;;9.23;94.77
57248;BME280;55809;46.618;10.764;2022-11-04T00:03:41;92124.00;;;9.19;94.63
57248;BME280;55809;46.618;10.764;2022-11-04T00:06:26;92123.63;;;9.17;95.50
57248;BME280;55809;46.618;10.764;2022-11-04T00:09:16;92204.63;;;9.77;96.04
57248;BME280;55809;46.618;10.764;2022-11-04T00:14:55;92149.06;;;9.39;97.01
57248;BME280;55809;46.618;10.764;2022-11-04T00:17:45;92176.19;;;9.52;96.62
57248;BME280;55809;46.618;10.764;2022-11-04T00:20:55;92127.31;;;9.27;96.99
57248;BME280;55809;46.618;10.764;2022-11-04T00:23:40;92095.44;;;9.02;97.23
57248;BME280;55809;46.618;10.764;2022-11-04T00:26:31;92104.22;;;9.06;97.57
57248;BME280;55809;46.618;10.764;2022-11-04T00:29:19;92100.03;;;9.01;98.08
57248;BME280;55809;46.618;10.764;2022-11-04T00:31:59;92134.94;;;9.32;98.67
57248;BME280;55809;46.618;10.764;2022-11-04T00:34:44;92105.72;;;9.07;98.79
57248;BME280;55809;46.618;10.764;2022-11-04T00:37:29;92130.84;;;9.24;99.38
57248;BME280;55809;46.618;10.764;2022-11-04T00:40:02;92084.66;;;9.02;99.49
57248;BME280;55809;46.618;10.764;2022-11-04T00:42:38;92152.75;;;9.49;99.58
57248;BME280;55809;46.618;10.764;2022-11-04T00:45:24;92071.53;;;9.04;98.84
57248;BME280;55809;46.618;10.764;2022-11-04T00:47:57;92102.75;;;9.25;99.19
57248;BME280;55809;46.618;10.764;2022-11-04T00:50:36;92086.75;;;9.14;99.14
57248;BME280;55809;46.618;10.764;2022-11-04T00:53:18;92086.69;;;9.18;98.86
57248;BME280;55809;46.618;10.764;2022-11-04T00:55:49;92093.97;;;9.21;98.12
57248;BME280;55809;46.618;10.764;2022-11-04T00:58:48;92071.41;;;9.11;98.07
57248;BME280;55809;46.618;10.764;2022-11-04T01:01:22;92068.63;;;9.18;97.87
57248;BME280;55809;46.618;10.764;2022-11-04T01:03:55;92056.25;;;9.21;97.74
57248;BME280;55809;46.618;10.764;2022-11-04T01:06:30;92045.97;;;9.15;98.17
57248;BME280;55809;46.618;10.764;2022-11-04T01:09:12;92046.75;;;9.16;94.83
57248;BME280;55809;46.618;10.764;2022-11-04T01:11:48;92065.69;;;9.32;96.49
57248;BME280;55809;46.618;10.764;2022-11-04T01:14:41;92025.38;;;9.05;95.68
57248;BME280;55809;46.618;10.764;2022-11-04T01:17:48;92030.78;;;9.05;95.96
57248;BME280;55809;46.618;10.764;2022-11-04T01:20:51;92003.09;;;8.81;97.82
57248;BME280;55809;46.618;10.764;2022-11-04T01:23:24;92015.31;;;8.86;98.58
57248;BME280;55809;46.618;10.764;2022-11-04T01:26:05;92002.09;;;8.72;100.00
57248;BME280;55809;46.618;10.764;2022-11-04T01:28:51;92044.69;;;9.00;100.00
57248;BME280;55809;46.618;10.764;2022-11-04T01:37:43;92004.69;;;8.79;100.00
57248;BME280;55809;46.618;10.764;2022-11-04T01:40:25;92022.84;;;8.95;100.00
57248;BME280;55809;46.618;10.764;2022-11-04T01:43:41;91989.41;;;8.72;100.00
57248;BME280;55809;46.618;10.764;2022-11-04T01:46:25;92043.56;;;9.21;100.00
57248;BME280;55809;46.618;10.764;2022-11-04T01:49:25;91985.72;;;8.86;100.00
57248;BME280;55809;46.618;10.764;2022-11-04T01:52:05;92004.94;;;9.08;100.00
57248;BME280;55809;46.618;10.764;2022-11-04T01:55:05;92003.31;;;9.14;100.00
57248;BME280;55809;46.618;10.764;2022-11-04T01:58:00;92007.03;;;9.20;100.00
57248;BME280;55809;46.618;10.764;2022-11-04T02:00:42;91952.69;;;8.85;100.00
57248;BME280;55809;46.618;10.764;2022-11-04T02:03:33;92008.69;;;9.14;100.00
57248;BME280;55809;46.618;10.764;2022-11-04T02:06:17;91944.38;;;8.76;100.00
57248;BME280;55809;46.618;10.764;2022-11-04T02:09:05;91954.25;;;8.83;100.00
57248;BME280;55809;46.618;10.764;2022-11-04T02:11:51;91984.06;;;9.15;100.00
57248;BME280;55809;46.618;10.764;2022-11-04T02:18:20;91927.16;;;8.93;100.00
57248;BME280;55809;46.618;10.764;2022-11-04T02:25:10;92009.63;;;9.67;100.00
57248;BME280;55809;46.618;10.764;2022-11-04T02:31:07;91883.41;;;9.09;99.04
57248;BME280;55809;46.618;10.764;2022-11-04T02:34:03;91875.88;;;9.01;98.87
57248;BME280;55809;46.618;10.764;2022-11-04T02:36:47;91890.31;;;9.10;99.12
57248;BME280;55809;46.618;10.764;2022-11-04T02:39:48;91874.16;;;9.10;98.48
57248;BME280;55809;46.618;10.764;2022-11-04T02:42:36;91872.88;;;8.99;97.65
57248;BME280;55809;46.618;10.764;2022-11-04T02:45:26;91875.25;;;8.93;98.23
57248;BME280;55809;46.618;10.764;2022-11-04T02:48:32;91897.78;;;9.23;98.29
57248;BME280;55809;46.618;10.764;2022-11-04T02:51:23;91849.25;;;8.86;98.79
57248;BME280;55809;46.618;10.764;2022-11-04T02:54:16;91886.72;;;9.17;97.91
57248;BME280;55809;46.618;10.764;2022-11-04T02:57:07;91819.50;;;8.74;97.78
57248;BME280;55809;46.618;10.764;2022-11-04T02:59:55;91810.13;;;8.62;98.51
57248;BME280;55809;46.618;10.764;2022-11-04T03:02:57;91806.28;;;8.63;99.52
57248;BME280;55809;46.618;10.764;2022-11-04T03:05:57;91811.22;;;8.64;100.00
57248;BME280;55809;46.618;10.764;2022-11-04T03:08:54;91813.03;;;8.71;100.00
57248;BME280;55809;46.618;10.764;2022-11-04T03:11:54;91798.47;;;8.68;100.00
57248;BME280;55809;46.618;10.764;2022-11-04T03:14:44;91817.66;;;8.90;100.00
57248;BME280;55809;46.618;10.764;2022-11-04T03:17:30;91804.81;;;8.78;100.00
57248;BME280;55809;46.618;10.764;2022-11-04T03:20:19;91792.97;;;8.76;100.00
57248;BME280;55809;46.618;10.764;2022-11-04T03:23:13;91892.38;;;9.43;100.00
57248;BME280;55809;46.618;10.764;2022-11-04T03:25:59;91805.78;;;8.88;100.00
57248;BME280;55809;46.618;10.764;2022-11-04T03:28:51;91793.09;;;8.88;99.83
57248;BME280;55809;46.618;10.764;2022-11-04T03:31:38;91781.47;;;8.91;99.52
57248;BME280;55809;46.618;10.764;2022-11-04T03:34:21;91824.41;;;9.19;99.77
57248;BME280;55809;46.618;10.764;2022-11-04T03:37:03;91770.41;;;8.89;99.97
57248;BME280;55809;46.618;10.764;2022-11-04T03:40:04;91788.84;;;9.07;100.00
57248;BME280;55809;46.618;10.764;2022-11-04T03:42:54;91753.75;;;8.95;99.92
57248;BME280;55809;46.618;10.764;2022-11-04T03:45:42;91753.34;;;8.96;99.66
57248;BME280;55809;46.618;10.764;2022-11-04T03:48:42;91759.69;;;9.06;99.43
57248;BME280;55809;46.618;10.764;2022-11-04T03:52:04;91755.03;;;9.06;99.22
57248;BME280;55809;46.618;10.764;2022-11-04T03:54:52;91778.78;;;9.11;98.68
57248;BME280;55809;46.618;10.764;2022-11-04T03:57:47;91761.34;;;9.00;99.34
57248;BME280;55809;46.618;10.764;2022-11-04T04:00:21;91773.81;;;9.10;99.00
57248;BME280;55809;46.618;10.764;2022-11-04T04:03:06;91788.44;;;9.09;98.90
57248;BME280;55809;46.618;10.764;2022-11-04T04:09:12;91811.25;;;9.21;98.49
57248;BME280;55809;46.618;10.764;2022-11-04T04:12:00;91813.06;;;9.27;96.91
57248;BME280;55809;46.618;10.764;2022-11-04T04:14:44;91913.31;;;9.91;97.39
57248;BME280;55809;46.618;10.764;2022-11-04T04:17:27;91818.38;;;9.11;96.90
57248;BME280;55809;46.618;10.764;2022-11-04T04:20:18;91820.47;;;9.03;94.95
57248;BME280;55809;46.618;10.764;2022-11-04T04:23:03;91823.31;;;8.96;93.22
57248;BME280;55809;46.618;10.764;2022-11-04T04:26:05;91922.88;;;9.56;93.39
57248;BME280;55809;46.618;10.764;2022-11-04T04:29:02;91847.03;;;8.81;91.96
57248;BME280;55809;46.618;10.764;2022-11-04T04:32:14;91825.53;;;8.38;89.45
57248;BME280;55809;46.618;10.764;2022-11-04T04:38:04;91807.13;;;8.13;88.22
57248;BME280;55809;46.618;10.764;2022-11-04T04:41:05;91820.72;;;8.02;88.21
57248;BME280;55809;46.618;10.764;2022-11-04T04:43:56;91856.78;;;8.28;87.11
57248;BME280;55809;46.618;10.764;2022-11-04T04:46:46;91820.50;;;7.93;87.22
57248;BME280;55809;46.618;10.764;2022-11-04T04:52:45;91816.91;;;7.76;86.34
57248;BME280;55809;46.618;10.764;2022-11-04T04:55:18;91830.41;;;7.72;88.13
57248;BME280;55809;46.618;10.764;2022-11-04T04:58:20;91842.38;;;7.68;87.23
57248;BME280;55809;46.618;10.764;2022-11-04T05:01:03;91839.00;;;7.64;87.48
57248;BME280;55809;46.618;10.764;2022-11-04T05:04:14;91829.28;;;7.70;85.94
57248;BME280;55809;46.618;10.764;2022-11-04T05:06:52;91846.91;;;7.98;86.29
57248;BME280;55809;46.618;10.764;2022-11-04T05:09:29;91787.84;;;7.71;86.63
57248;BME280;55809;46.618;10.764;2022-11-04T05:12:24;91774.06;;;7.69;86.37
57248;BME280;55809;46.618;10.764;2022-11-04T05:18:06;91786.69;;;7.72;84.07
57248;BME280;55809;46.618;10.764;2022-11-04T05:21:10;91777.97;;;7.64;82.39
57248;BME280;55809;46.618;10.764;2022-11-04T05:24:00;91807.13;;;7.89;81.31
57248;BME280;55809;46.618;10.764;2022-11-04T05:33:20;91767.81;;;7.52;82.31
57248;BME280;55809;46.618;10.764;2022-11-04T05:36:11;91840.53;;;7.88;82.98
57248;BME280;55809;46.618;10.764;2022-11-04T05:38:52;91806.97;;;7.73;82.64
57248;BME280;55809;46.618;10.764;2022-11-04T05:41:32;91818.22;;;7.68;83.05
57248;BME280;55809;46.618;10.764;2022-11-04T05:44:28;91813.44;;;7.52;84.05
57248;BME280;55809;46.618;10.764;2022-11-04T05:47:08;91808.84;;;7.52;83.19
57248;BME280;55809;46.618;10.764;2022-11-04T05:53:14;91807.72;;;7.50;83.07
57248;BME280;55809;46.618;10.764;2022-11-04T05:56:11;91793.09;;;7.55;83.66
57248;BME280;55809;46.618;10.764;2022-11-04T05:58:50;91806.19;;;7.76;82.50
57248;BME280;55809;46.618;10.764;2022-11-04T06:01:33;91779.41;;;7.45;82.31
57248;BME280;55809;46.618;10.764;2022-11-04T06:04:08;91800.78;;;7.52;84.01
57248;BME280;55809;46.618;10.764;2022-11-04T06:06:46;91822.97;;;7.57;84.56
57248;BME280;55809;46.618;10.764;2022-11-04T06:09:39;91833.00;;;7.52;83.69
57248;BME280;55809;46.618;10.764;2022-11-04T06:12:19;91870.69;;;7.72;82.78
57248;BME280;55809;46.618;10.764;2022-11-04T06:15:18;91929.53;;;8.17;83.89
57248;BME280;55809;46.618;10.764;2022-11-04T06:18:02;91849.66;;;7.40;80.37
57248;BME280;55809;46.618;10.764;2022-11-04T06:21:05;91867.78;;;7.60;80.36
57248;BME280;55809;46.618;10.764;2022-11-04T06:24:06;91861.03;;;7.51;82.31
57248;BME280;55809;46.618;10.764;2022-11-04T06:26:53;91889.28;;;7.60;82.19
57248;BME280;55809;46.618;10.764;2022-11-04T06:29:30;91928.59;;;7.77;80.17
57248;BME280;55809;46.618;10.764;2022-11-04T06:32:05;91903.13;;;7.58;82.13
57248;BME280;55809;46.618;10.764;2022-11-04T06:34:59;91911.41;;;7.71;81.22
57248;BME280;55809;46.618;10.764;2022-11-04T06:37:41;91873.75;;;7.47;79.97
57248;BME280;55809;46.618;10.764;2022-11-04T06:40:12;91879.81;;;7.51;81.57
57248;BME280;55809;46.618;10.764;2022-11-04T06:43:07;91924.34;;;7.76;81.96
57248;BME280;55809;46.618;10.764;2022-11-04T06:45:42;91923.09;;;7.84;81.22
57248;BME280;55809;46.618;10.764;2022-11-04T06:48:14;91886.25;;;7.58;81.22
57248;BME280;55809;46.618;10.764;2022-11-04T06:50:53;91872.66;;;7.41;81.85
57248;BME280;55809;46.618;10.764;2022-11-04T06:53:31;91872.84;;;7.27;82.15
57248;BME280;55809;46.618;10.764;2022-11-04T06:56:24;91961.09;;;7.83;82.53
57248;BME280;55809;46.618;10.764;2022-11-04T06:59:40;91892.16;;;7.15;80.48
57248;BME280;55809;46.618;10.764;2022-11-04T07:02:11;91919.25;;;7.27;84.23
57248;BME280;55809;46.618;10.764;2022-11-04T07:04:51;91906.44;;;7.08;82.10
57248;BME280;55809;46.618;10.764;2022-11-04T07:07:45;91899.59;;;7.00;83.53
57248;BME280;55809;46.618;10.764;2022-11-04T07:10:34;91967.00;;;7.40;83.97
57248;BME280;55809;46.618;10.764;2022-11-04T07:13:09;91973.03;;;7.51;85.40
57248;BME280;55809;46.618;10.764;2022-11-04T07:22:59;91944.38;;;7.07;84.51
57248;BME280;55809;46.618;10.764;2022-11-04T07:25:41;92002.53;;;7.55;85.58
57248;BME280;55809;46.618;10.764;2022-11-04T07:28:12;91945.09;;;7.14;85.00
57248;BME280;55809;46.618;10.764;2022-11-04T07:30:59;91954.94;;;7.24;84.95
57248;BME280;55809;46.618;10.764;2022-11-04T07:33:56;91959.63;;;7.13;84.59
57248;BME280;55809;46.618;10.764;2022-11-04T07:36:38;91956.25;;;7.09;85.07
57248;BME280;55809;46.618;10.764;2022-11-04T07:42:15;91943.94;;;7.12;86.48
57248;BME280;55809;46.618;10.764;2022-11-04T07:45:00;92062.22;;;8.00;85.64
57248;BME280;55809;46.618;10.764;2022-11-04T07:47:58;91956.81;;;7.27;85.53
57248;BME280;55809;46.618;10.764;2022-11-04T07:50:32;92061.28;;;7.83;84.82
57248;BME280;55809;46.618;10.764;2022-11-04T07:53:14;92062.44;;;7.82;83.87
57248;BME280;55809;46.618;10.764;2022-11-04T07:56:17;91952.75;;;6.74;81.48
57248;BME280;55809;46.618;10.764;2022-11-04T07:59:12;92044.19;;;7.32;84.49
57248;BME280;55809;46.618;10.764;2022-11-04T08:02:00;92063.53;;;7.54;85.01
57248;BME280;55809;46.618;10.764;2022-11-04T08:04:44;91962.72;;;6.74;85.70
57248;BME280;55809;46.618;10.764;2022-11-04T08:07:26;92054.53;;;7.30;85.27
57248;BME280;55809;46.618;10.764;2022-11-04T08:09:57;91970.72;;;6.77;84.35
57248;BME280;55809;46.618;10.764;2022-11-04T08:12:40;91972.78;;;6.63;85.34
57248;BME280;55809;46.618;10.764;2022-11-04T08:15:19;91984.47;;;6.83;86.17
57248;BME280;55809;46.618;10.764;2022-11-04T08:20:50;92002.06;;;6.84;85.70
57248;BME280;55809;46.618;10.764;2022-11-04T08:23:27;92060.88;;;7.09;85.80
57248;BME280;55809;46.618;10.764;2022-11-04T08:26:07;92035.28;;;6.97;85.65
57248;BME280;55809;46.618;10.764;2022-11-04T08:28:49;91988.09;;;6.66;86.73
57248;BME280;55809;46.618;10.764;2022-11-04T08:31:38;92023.94;;;6.82;86.27
57248;BME280;55809;46.618;10.764;2022-11-04T08:34:16;92102.91;;;7.26;86.46
57248;BME280;55809;46.618;10.764;2022-11-04T08:37:04;92037.47;;;6.68;86.41
57248;BME280;55809;46.618;10.764;2022-11-04T08:39:38;92031.78;;;6.63;87.11
57248;BME280;55809;46.618;10.764;2022-11-04T08:42:40;92015.81;;;6.48;86.95
57248;BME280;55809;46.618;10.764;2022-11-04T08:45:15;91983.38;;;6.28;86.25
57248;BME280;55809;46.618;10.764;2022-11-04T08:47:49;92006.97;;;6.48;86.34
57248;BME280;55809;46.618;10.764;2022-11-04T08:50:26;92072.50;;;6.95;86.27
57248;BME280;55809;46.618;10.764;2022-11-04T08:53:01;92007.69;;;6.55;86.11
57248;BME280;55809;46.618;10.764;2022-11-04T08:55:41;92038.56;;;6.78;86.37
57248;BME280;55809;46.618;10.764;2022-11-04T08:58:17;91967.97;;;6.43;86.57
57248;BME280;55809;46.618;10.764;2022-11-04T09:00:47;91986.72;;;6.43;86.15
57248;BME280;55809;46.618;10.764;2022-11-04T09:03:42;92084.34;;;7.01;86.89
57248;BME280;55809;46.618;10.764;2022-11-04T09:06:31;92009.72;;;6.41;85.52
57248;BME280;55809;46.618;10.764;2022-11-04T09:09:05;91962.53;;;5.98;85.89
57248;BME280;55809;46.618;10.764;2022-11-04T09:11:49;92060.53;;;6.58;87.54
57248;BME280;55809;46.618;10.764;2022-11-04T09:14:24;92022.41;;;6.33;86.22
57248;BME280;55809;46.618;10.764;2022-11-04T09:16:55;92099.31;;;6.99;86.88
57248;BME280;55809;46.618;10.764;2022-11-04T09:19:42;92099.66;;;7.04;86.64
57248;BME280;55809;46.618;10.764;2022-11-04T09:22:25;92023.81;;;6.52;86.30
57248;BME280;55809;46.618;10.764;2022-11-04T09:25:21;92013.06;;;6.55;85.95
57248;BME280;55809;46.618;10.764;2022-11-04T09:28:06;92014.13;;;6.65;85.41
57248;BME280;55809;46.618;10.764;2022-11-04T09:30:48;92032.41;;;6.77;85.87
57248;BME280;55809;46.618;10.764;2022-11-04T09:33:45;92079.25;;;7.11;86.16
57248;BME280;55809;46.618;10.764;2022-11-04T09:36:49;91953.91;;;6.32;85.83
57248;BME280;55809;46.618;10.764;2022-11-04T09:39:27;91945.47;;;6.30;86.43
57248;BME280;55809;46.618;10.764;2022-11-04T09:42:24;91994.59;;;6.65;85.86
57248;BME280;55809;46.618;10.764;2022-11-04T09:45:16;92053.97;;;7.12;85.68
57248;BME280;55809;46.618;10.764;2022-11-04T09:47:54;91996.59;;;6.53;85.01
57248;BME280;55809;46.618;10.764;2022-11-04T09:51:01;92021.19;;;6.90;86.59
57248;BME280;55809;46.618;10.764;2022-11-04T09:57:03;92042.50;;;7.08;85.22
57248;BME280;55809;46.618;10.764;2022-11-04T09:59:36;91912.16;;;6.31;85.75
57248;BME280;55809;46.618;10.764;2022-11-04T10:02:45;91907.91;;;6.37;85.51
57248;BME280;55809;46.618;10.764;2022-11-04T10:19:42;91881.31;;;6.53;83.82
57248;BME280;55809;46.618;10.764;2022-11-04T10:51:28;91888.50;;;9.24;79.41
57248;BME280;55809;46.618;10.764;2022-11-04T11:25:32;91765.75;;;8.90;73.04
57248;BME280;55809;46.618;10.764;2022-11-04T11:28:19;91832.25;;;9.82;69.27
57248;BME280;55809;46.618;10.764;2022-11-04T11:31:33;91867.72;;;9.97;70.43
57248;BME280;55809;46.618;10.764;2022-11-04T11:34:13;91759.13;;;9.31;69.72
57248;BME280;55809;46.618;10.764;2022-11-04T11:37:00;91779.38;;;9.19;67.75
57248;BME280;55809;46.618;10.764;2022-11-04T11:39:43;91859.81;;;9.53;66.00
57248;BME280;55809;46.618;10.764;2022-11-04T11:42:21;91834.41;;;9.18;68.31
57248;BME280;55809;46.618;10.764;2022-11-04T11:44:54;91792.94;;;8.96;69.65
57248;BME280;55809;46.618;10.764;2022-11-04T11:48:11;91754.06;;;8.60;69.60
57248;BME280;55809;46.618;10.764;2022-11-04T11:51:10;91832.69;;;9.08;69.35
57248;BME280;55809;46.618;10.764;2022-11-04T11:54:07;91850.56;;;9.18;67.42
57248;BME280;55809;46.618;10.764;2022-11-04T11:56:49;91783.09;;;8.69;69.01
57248;BME280;55809;46.618;10.764;2022-11-04T11:59:45;91778.38;;;8.93;68.24
57248;BME280;55809;46.618;10.764;2022-11-04T12:02:49;91843.28;;;9.71;66.30
57248;BME280;55809;46.618;10.764;2022-11-04T12:05:43;91838.25;;;10.06;64.01
57248;BME280;55809;46.618;10.764;2022-11-04T12:08:25;91837.03;;;10.27;64.58
57248;BME280;55809;46.618;10.764;2022-11-04T12:11:01;91751.69;;;9.88;62.96
57248;BME280;55809;46.618;10.764;2022-11-04T12:13:51;91824.19;;;10.47;62.68
57248;BME280;55809;46.618;10.764;2022-11-04T12:16:55;91726.81;;;9.80;61.53
57248;BME280;55809;46.618;10.764;2022-11-04T12:19:55;91819.59;;;10.61;62.65
57248;BME280;55809;46.618;10.764;2022-11-04T12:22:49;91724.00;;;10.00;61.73
57248;BME280;55809;46.618;10.764;2022-11-04T12:25:30;91827.59;;;10.64;63.24
57248;BME280;55809;46.618;10.764;2022-11-04T12:28:14;91791.84;;;10.31;62.40
57248;BME280;55809;46.618;10.764;2022-11-04T12:31:06;91718.72;;;9.80;62.55
57248;BME280;55809;46.618;10.764;2022-11-04T12:33:58;91835.38;;;10.46;64.07
57248;BME280;55809;46.618;10.764;2022-11-04T12:40:04;91844.66;;;10.12;61.80
57248;BME280;55809;46.618;10.764;2022-11-04T12:42:42;91850.72;;;10.16;63.51
57248;BME280;55809;46.618;10.764;2022-11-04T12:45:35;91845.50;;;10.25;62.19
57248;BME280;55809;46.618;10.764;2022-11-04T12:48:26;91768.78;;;9.65;64.16
57248;BME280;55809;46.618;10.764;2022-11-04T12:51:13;91833.03;;;9.82;64.42
57248;BME280;55809;46.618;10.764;2022-11-04T12:56:44;91832.22;;;9.49;62.75
57248;BME280;55809;46.618;10.764;2022-11-04T12:59:35;91792.84;;;9.19;60.83
57248;BME280;55809;46.618;10.764;2022-11-04T13:02:25;91826.31;;;9.38;63.75
57248;BME280;55809;46.618;10.764;2022-11-04T13:05:06;91831.16;;;9.27;59.19
57248;BME280;55809;46.618;10.764;2022-11-04T13:07:54;91838.03;;;9.28;62.58
57248;BME280;55809;46.618;10.764;2022-11-04T13:10:38;91732.06;;;8.45;62.58
57248;BME280;55809;46.618;10.764;2022-11-04T13:13:15;91732.91;;;8.42;61.62
57248;BME280;55809;46.618;10.764;2022-11-04T13:16:05;91817.31;;;9.08;62.09
57248;BME280;55809;46.618;10.764;2022-11-04T13:18:40;91739.03;;;8.43;60.83
57248;BME280;55809;46.618;10.764;2022-11-04T13:21:19;91833.09;;;9.06;59.72
57248;BME280;55809;46.618;10.764;2022-11-04T13:24:14;91789.91;;;8.74;62.05
57248;BME280;55809;46.618;10.764;2022-11-04T13:27:12;91758.94;;;8.45;61.14
57248;BME280;55809;46.618;10.764;2022-11-04T13:33:20;91757.53;;;8.37;65.75
57248;BME280;55809;46.618;10.764;2022-11-04T13:36:02;91752.88;;;8.81;67.46
57248;BME280;55809;46.618;10.764;2022-11-04T13:38:44;91767.78;;;9.22;66.82
57248;BME280;55809;46.618;10.764;2022-11-04T13:41:57;91767.19;;;9.31;60.79
57248;BME280;55809;46.618;10.764;2022-11-04T13:44:54;91846.84;;;10.01;59.19
57248;BME280;55809;46.618;10.764;2022-11-04T13:47:31;91829.75;;;9.91;58.12
57248;BME280;55809;46.618;10.764;2022-11-04T13:50:40;91861.94;;;9.98;58.81
57248;BME280;55809;46.618;10.764;2022-11-04T13:53:11;91861.50;;;10.00;60.95
57248;BME280;55809;46.618;10.764;2022-11-04T13:55:48;91838.91;;;10.10;60.86
57248;BME280;55809;46.618;10.764;2022-11-04T13:58:24;91852.34;;;10.46;62.29
57248;BME280;55809;46.618;10.764;2022-11-04T14:04:30;91848.53;;;9.95;56.22
57248;BME280;55809;46.618;10.764;2022-11-04T14:10:00;91837.25;;;9.47;57.33
57248;BME280;55809;46.618;10.764;2022-11-04T14:12:34;91792.19;;;8.95;57.96
57248;BME280;55809;46.618;10.764;2022-11-04T14:15:59;91866.63;;;9.42;62.54
57248;BME280;55809;46.618;10.764;2022-11-04T14:19:44;91866.06;;;9.30;55.67
57248;BME280;55809;46.618;10.764;2022-11-04T14:52:50;91805.72;;;8.05;58.93
57248;BME280;55809;46.618;10.764;2022-11-04T14:58:27;91908.22;;;8.77;60.10
57248;BME280;55809;46.618;10.764;2022-11-04T15:01:03;91874.78;;;8.55;60.46
57248;BME280;55809;46.618;10.764;2022-11-04T15:03:43;91879.28;;;8.61;61.85
57248;BME280;55809;46.618;10.764;2022-11-04T15:06:22;91916.00;;;8.95;61.61
57248;BME280;55809;46.618;10.764;2022-11-04T15:08:55;91921.78;;;8.93;63.39
57248;BME280;55809;46.618;10.764;2022-11-04T15:11:26;91908.59;;;8.79;63.51
57248;BME280;55809;46.618;10.764;2022-11-04T15:14:19;91929.13;;;8.69;62.70
57248;BME280;55809;46.618;10.764;2022-11-04T15:17:17;91933.03;;;8.65;61.51
57248;BME280;55809;46.618;10.764;2022-11-04T15:19:52;91938.19;;;8.56;64.64
57248;BME280;55809;46.618;10.764;2022-11-04T15:22:43;91938.88;;;8.60;64.18
57248;BME280;55809;46.618;10.764;2022-11-04T15:25:45;91953.97;;;8.54;64.58
57248;BME280;55809;46.618;10.764;2022-11-04T15:28:32;91949.47;;;8.47;63.09
57248;BME280;55809;46.618;10.764;2022-11-04T15:31:13;91962.59;;;8.41;64.83
57248;BME280;55809;46.618;10.764;2022-11-04T15:33:57;91954.53;;;8.41;64.34
57248;BME280;55809;46.618;10.764;2022-11-04T15:36:32;91956.19;;;8.32;64.05
57248;BME280;55809;46.618;10.764;2022-11-04T15:39:14;91976.19;;;8.31;65.19
57248;BME280;55809;46.618;10.764;2022-11-04T15:42:00;91954.59;;;8.11;63.66
57248;BME280;55809;46.618;10.764;2022-11-04T15:44:49;91982.44;;;8.24;65.96
57248;BME280;55809;46.618;10.764;2022-11-04T15:47:41;91985.56;;;8.19;65.08
57248;BME280;55809;46.618;10.764;2022-11-04T15:50:24;91981.47;;;8.11;65.43
57248;BME280;55809;46.618;10.764;2022-11-04T15:52:56;91988.72;;;8.14;65.30
57248;BME280;55809;46.618;10.764;2022-11-04T15:55:52;91999.47;;;8.14;67.36
57248;BME280;55809;46.618;10.764;2022-11-04T15:58:54;91988.88;;;8.03;66.79
57248;BME280;55809;46.618;10.764;2022-11-04T16:01:24;91992.75;;;7.98;68.02
57248;BME280;55809;46.618;10.764;2022-11-04T16:03:57;91986.47;;;7.82;68.35
57248;BME280;55809;46.618;10.764;2022-11-04T16:09:47;91988.91;;;7.69;65.20
57248;BME280;55809;46.618;10.764;2022-11-04T16:16:17;92006.19;;;7.68;67.30
57248;BME280;55809;46.618;10.764;2022-11-04T16:19:01;92008.84;;;7.71;66.16
57248;BME280;55809;46.618;10.764;2022-11-04T16:21:47;92008.19;;;7.64;66.70
57248;BME280;55809;46.618;10.764;2022-11-04T16:24:30;92011.66;;;7.61;66.15
57248;BME280;55809;46.618;10.764;2022-11-04T16:27:08;92018.91;;;7.64;67.89
57248;BME280;55809;46.618;10.764;2022-11-04T16:29:51;92019.38;;;7.55;67.26
57248;BME280;55809;46.618;10.764;2022-11-04T16:32:41;92022.41;;;7.61;67.80
57248;BME280;55809;46.618;10.764;2022-11-04T16:35:16;92023.25;;;7.54;66.59
57248;BME280;55809;46.618;10.764;2022-11-04T16:37:45;92022.16;;;7.48;66.51
57248;BME280;55809;46.618;10.764;2022-11-04T16:40:13;92016.88;;;7.41;68.09
57248;BME280;55809;46.618;10.764;2022-11-04T16:42:42;92020.69;;;7.40;67.05
57248;BME280;55809;46.618;10.764;2022-11-04T16:45:19;92027.91;;;7.46;69.48
57248;BME280;55809;46.618;10.764;2022-11-04T16:47:49;92011.25;;;7.28;68.19
57248;BME280;55809;46.618;10.764;2022-11-04T16:50:18;92031.41;;;7.43;67.94
57248;BME280;55809;46.618;10.764;2022-11-04T16:52:45;92036.50;;;7.34;66.90
57248;BME280;55809;46.618;10.764;2022-11-04T16:55:20;92031.56;;;7.29;66.50
57248;BME280;55809;46.618;10.764;2022-11-04T16:57:54;92034.53;;;7.38;69.24
57248;BME280;55809;46.618;10.764;2022-11-04T17:00:25;92017.47;;;7.21;68.67
57248;BME280;55809;46.618;10.764;2022-11-04T17:02:59;92036.22;;;7.25;67.61
57248;BME280;55809;46.618;10.764;2022-11-04T17:05:31;92050.28;;;7.36;67.80
57248;BME280;55809;46.618;10.764;2022-11-04T17:08:01;92045.34;;;7.31;67.41
57248;BME280;55809;46.618;10.764;2022-11-04T17:10:32;92062.94;;;7.36;68.30
57248;BME280;55809;46.618;10.764;2022-11-04T17:13:01;92059.56;;;7.28;68.34
57248;BME280;55809;46.618;10.764;2022-11-04T17:15:30;92064.53;;;7.29;68.52
57248;BME280;55809;46.618;10.764;2022-11-04T17:18:22;92066.16;;;7.20;69.33
57248;BME280;55809;46.618;10.764;2022-11-04T17:20:50;92074.94;;;7.20;68.13
57248;BME280;55809;46.618;10.764;2022-11-04T17:23:20;92078.47;;;7.17;68.17
57248;BME280;55809;46.618;10.764;2022-11-04T17:25:50;92080.38;;;7.13;67.60
57248;BME280;55809;46.618;10.764;2022-11-04T17:28:36;92090.75;;;7.15;69.43
57248;BME280;55809;46.618;10.764;2022-11-04T17:31:06;92090.38;;;7.13;67.85
57248;BME280;55809;46.618;10.764;2022-11-04T17:33:39;92095.75;;;7.09;67.23
57248;BME280;55809;46.618;10.764;2022-11-04T17:36:14;92084.69;;;7.03;68.05
57248;BME280;55809;46.618;10.764;2022-11-04T17:38:56;92084.63;;;7.11;69.33
57248;BME280;55809;46.618;10.764;2022-11-04T17:41:32;92088.13;;;7.08;70.57
57248;BME280;55809;46.618;10.764;2022-11-04T17:44:22;92084.03;;;6.92;68.43
57248;BME280;55809;46.618;10.764;2022-11-04T17:46:52;92101.91;;;7.06;69.74